Capitol Reef Natl Park, Utah
Current Conditions -  °F | °C
As of 3:53 AM on Friday 28 Nov 2014 (Local Time) from KBCE Reporting Station
Clear Clear  
Wind Chill:   Ceiling: Unl
Heat Index: 16°   Visibility: 10mi
Dew Point: 10°   Wind: 6mph
Humidity: 77%   Direction: 240°WSW
Pressure: 30.3"   Gusts: NA
Location:  38.24°N, 111.26°W
Report Text: KBCE 281053Z AUTO 24005KT 10SM CLR M09/M12 A3030 RMK AO2 SLP227 T10891122
Loading
Personal Weather Stations






























Interactive Weather Map New forecast layout! Learn more

10-Day Weather Forecast

Advertisements
Track Severe Weather on mobile